Mark Aaronson

Chefscout - New York Red Bulls
19 Aug 2027
Donnerstag
Verarbeitung

Persönlichkeit

Anpassungsfähigkeit (1) Ehrgeiz (8) Kontroverse (5) Loyalität (18) Druck (11) Professionalität (13) Fairness (10) Temperament (12)

Profil

Trainerstil Demokratisch
Lizenz Kontinentale B
Entschlossenheit 9
Menschenführung 12
Motivation 6
Disziplin 10
Arbeitszufriedenheit
100%
Ermüdung
0%
Rolle Chefscout
Gehalt 77.1K p/W
Vertrag 14.03.2028

Leistung

Verhalten Gut
Trainingseffektivität
44%
Spielerentwicklung
25%
Verletzungsprävention
65%
Taktische Umsetzung
55%

Letzte Ereignisse

Nahm an einer Scouting-Besprechung teil jetzt
Empfahl ein Transferziel jetzt
Empfahl ein Transferziel jetzt
Empfahl ein Transferziel jetzt
Empfahl ein Transferziel 7T her
Empfahl ein Transferziel 7T her
Empfahl ein Transferziel 7T her
Empfahl ein Transferziel 7T her

Aktuell beobachtet

213
Spieler Verein Status Fähigkeit Vertrauen Beobachtet Zuletzt beobachtet Letzte Stimme
Jan Bürger Gillingham Aktiv 118 / 115 40% 1 19.07.2027 -
Joel McGregor Swindon Town Verloren 95 / 96 40% 1 19.07.2027 -
Ibrahim Sabiu Bendel Insurance Aktiv 90 / 104 40% 1 19.07.2027 -
Pedro de la Vega FC Dallas Aktiv 133 / 134 66% 1 08.07.2027 Befürworten
Marezi Portsmouth Aktiv 121 / 125 40% 1 08.07.2027 -
George Hirst Stoke City Aktiv 139 / 134 40% 1 08.07.2027 -
Zach Hemming Chesterfield Aktiv 116 / 105 40% 5 04.07.2027 -
Radek Vítek Middlesbrough Aktiv 141 / 152 40% 5 04.07.2027 -
Francesco D'Alterio Ternana Aktiv 114 / 116 40% 1 04.07.2027 -
Wladimiro Falcone Lecce Aktiv 137 / 150 40% 6 03.07.2027 -
Oliver Dovin Coventry City Aktiv 136 / 134 40% 2 03.07.2027 -
Jacob Widell Zetterström Derby County Aktiv 133 / 129 40% 6 03.07.2027 -
Nicolas Schmid Portsmouth Aktiv 130 / 125 40% 7 02.07.2027 -
Josh Vickers Rotherham United Aktiv 118 / 118 40% 9 02.07.2027 -
Corey Addai Stockport County Aktiv 114 / 112 40% 1 02.07.2027 -
Max O'Leary West Bromwich Albion Aktiv 127 / 133 40% 10 30.06.2027 -
Grégoire Coudert Burnley Aktiv 128 / 137 40% 10 30.06.2027 -
Egil Selvik Watford Aktiv 131 / 125 40% 11 30.06.2027 -
Joel Pereira Reading Aktiv 118 / 118 40% 12 29.06.2027 -
Dean Henderson Crystal Palace Aktiv 157 / 148 40% 8 29.06.2027 -
Balázs Tóth Blackburn Rovers Aktiv 126 / 130 40% 5 29.06.2027 -
Jonathan Klinsmann Cesena Aktiv 128 / 137 40% 2 28.06.2027 -
Daniel Kyerewaa Reading Aktiv 121 / 124 40% 1 28.06.2027 -
Cian Ashford Cardiff City Aktiv 122 / 132 40% 1 28.06.2027 -
David Brooks Bournemouth Aktiv 146 / 140 40% 1 28.06.2027 -
Gianluca Saro Foggia Aktiv 116 / 112 40% 3 27.06.2027 -
Jamie Cumming Oxford United Aktiv 126 / 121 40% 2 27.06.2027 -
Bradley Mabunda SuperSport United Aktiv 121 / 129 40% 2 26.06.2027 -
Christian Walton Ipswich Town Aktiv 129 / 125 40% 12 26.06.2027 -
Alfie Whiteman Newport County Aktiv 110 / 101 40% 2 24.06.2027 -
Matteo Rizzo Cosenza Aktiv 110 / 116 40% 1 24.06.2027 -
Stefano Gori Union Brescia Aktiv 127 / 124 40% 6 23.06.2027 -
Simone Scuffet Pisa Aktiv 136 / 140 40% 5 22.06.2027 -
Will Dennis Milton Keynes Dons Aktiv 111 / 114 40% 2 22.06.2027 -
Othmane Maamma Watford Aktiv 125 / 139 40% 2 21.06.2027 -
Welington Southampton Aktiv 135 / 134 40% 1 21.06.2027 -
Kasey McAteer Ipswich Town Aktiv 137 / 127 40% 1 21.06.2027 -
George Wickens Lincoln City Aktiv 124 / 115 40% 8 19.06.2027 -
Caoimhin Kelleher Brentford Aktiv 157 / 148 40% 8 17.06.2027 -
Lorenzo Palmisani Frosinone Aktiv 131 / 131 40% 3 17.06.2027 -
Joe Gelhardt Hull City Aktiv 136 / 139 40% 1 17.06.2027 -
Robin Roefs Sunderland Aktiv 147 / 152 40% 4 15.06.2027 -
Alex Lowry Wycombe Wanderers Aktiv 114 / 116 40% 1 15.06.2027 -
Ronald Swansea City Aktiv 130 / 130 40% 1 15.06.2027 -
Vladan Kovačević Norwich City Aktiv 123 / 115 40% 3 13.06.2027 -
Alessio Cragno Südtirol Aktiv 130 / 116 40% 2 11.06.2027 -
Joe Lumley Sheffield Wednesday Aktiv 116 / 113 40% 6 09.06.2027 -
Michele Cerofolini Bari Aktiv 131 / 127 40% 2 09.06.2027 -
Arijanet Murić Sassuolo Aktiv 141 / 147 40% 5 08.06.2027 -
Mohamed Belloumi Hull City Aktiv 143 / 141 40% 1 07.06.2027 -
Ryoya Morishita Blackburn Rovers Aktiv 127 / 130 40% 2 04.06.2027 -
Kwame Poku Queens Park Rangers Aktiv 121 / 120 40% 2 04.06.2027 -
Jack McGlynn Stoke City Aktiv 134 / 128 40% 1 04.06.2027 -
Sergio Barlocco Trento Aktiv 111 / 118 40% 1 02.06.2027 -
Justin Bijlow Genoa Aktiv 147 / 157 40% 3 01.06.2027 -
Murphy Cooper Plymouth Argyle Aktiv 120 / 125 40% 5 31.05.2027 -
Samuele Perisan Audace Cerignola Aktiv 118 / 121 40% 2 31.05.2027 -
Riccardo Gagno Vicenza Aktiv 125 / 116 40% 6 30.05.2027 -
Zeidane Inoussa Swansea City Aktiv 127 / 123 40% 1 30.05.2027 -
Abdul Fatawu Leicester City Aktiv 137 / 141 40% 1 30.05.2027 -
Derensili Sanches Fernandes Huddersfield Town Aktiv 128 / 116 40% 3 29.05.2027 -
Hwang Hee-Chan Wolverhampton Aktiv 136 / 131 40% 2 29.05.2027 -
Harry Clarke Preston Aktiv 128 / 136 40% 1 29.05.2027 -
Michael Cooper Sheffield United Aktiv 131 / 128 40% 12 26.05.2027 -
Daniel Iversen Preston Aktiv 125 / 135 40% 4 25.05.2027 -
Jason Knight Bristol City Aktiv 133 / 121 40% 4 24.05.2027 -
Ross McCrorie Bristol City Aktiv 130 / 132 40% 1 24.05.2027 -
Kostantis Tzolakis Hull City Aktiv 140 / 143 40% 7 17.05.2027 -
Maduka Okoye Udinese Aktiv 137 / 134 40% 1 16.05.2027 -
Lukas Jensen Millwall Aktiv 120 / 126 40% 5 15.05.2027 -
Sorba Thomas Stoke City Aktiv 130 / 133 40% 2 13.05.2027 -
Finn Azaz Southampton Aktiv 131 / 136 40% 2 12.05.2027 -
Carlos Vicente Birmingham Aktiv 147 / 148 40% 2 12.05.2027 -
Filip Marschall Stevenage Aktiv 113 / 123 40% 8 08.05.2027 -
Tommaso Nobile Renate Aktiv 113 / 113 40% 1 03.05.2027 -
Saša Lukić Ipswich Town Aktiv 145 / 131 40% 2 29.04.2027 -
Tomáš Rigo Stoke City Aktiv 133 / 127 40% 1 29.04.2027 -
Toby Collyer West Bromwich Albion Aktiv 132 / 141 40% 1 25.04.2027 -
Jack Diamond Stockport County Aktiv 114 / 121 40% 1 25.04.2027 -
Pol Tristán Barnsley Aktiv 112 / 111 40% 2 21.04.2027 -
James Trafford Leeds United Aktiv 143 / 148 40% 8 19.04.2027 -
Bosun Lawal Stoke City Aktiv 124 / 120 40% 1 19.04.2027 -
Sipho Chaine Orlando Pirates Aktiv 114 / 133 40% 6 16.04.2027 -
Oswin Appollis Orlando Pirates Aktiv 128 / 129 40% 6 14.04.2027 -
Morgan Whittaker Middlesbrough Aktiv 135 / 122 40% 2 14.04.2027 -
Louie Barry Sheffield Wednesday Aktiv 120 / 132 40% 1 14.04.2027 -
Tshepang Moremi Orlando Pirates Aktiv 121 / 116 40% 2 11.04.2027 -
Ollie Tanner Cardiff City Aktiv 116 / 120 40% 1 11.04.2027 -
Max Bird Birmingham Aktiv 135 / 122 40% 1 11.04.2027 -
João Virgínia Wolverhampton Aktiv 123 / 121 40% 6 06.04.2027 -
Zack Steffen Spartak Moscow Aktiv 137 / 124 40% 9 05.04.2027 -
Matti Peltola DC United Aktiv 108 / 103 76% 1 05.04.2027 Befürworten
Gianmarco Vannucchi Benevento Aktiv 122 / 127 40% 1 02.04.2027 -
Andrea Zaccagno Torres Aktiv 114 / 117 40% 1 27.03.2027 -
Facundo Torres LOSC Lille Aktiv 134 / 134 67% 1 14.02.2027 Befürworten
Stanislav Agkatsev Sunderland Verhandlung 132 / 133 66% 1 14.02.2027 Befürworten
Bitello SC Freiburg Aktiv 135 / 135 68% 1 14.02.2027 Befürworten
Luiz Henrique West Ham United Aktiv 144 / 149 80% 1 14.02.2027 Befürworten
Israel Reyes CSKA Moscow Verhandlung 137 / 137 68% 1 14.02.2027 Befürworten
Patson Daka Leicester City Aktiv 123 / 120 40% 1 13.02.2027 -
Zeki Amdouni Burnley Aktiv 129 / 140 40% 1 13.02.2027 -
Michael Zetterer Leeds United Aktiv 142 / 129 40% 1 11.02.2027 -
Enzo Le Fée Sunderland Aktiv 143 / 148 40% 1 09.02.2027 -
Kwadwo Baah Watford Aktiv 132 / 134 40% 1 09.02.2027 -
Stanley Mills Oxford United Aktiv 126 / 130 40% 1 09.02.2027 -
Léo Scienza Southampton Aktiv 145 / 138 40% 5 08.02.2027 -
Lewis Morgan SuperSport United Aktiv 135 / 125 40% 7 07.02.2027 -
Adrien Truffert Bournemouth Aktiv 145 / 153 40% 1 07.02.2027 -
Bertrand Traoré Sunderland Aktiv 135 / 129 40% 1 07.02.2027 -
Jack Rudoni Coventry City Aktiv 135 / 140 40% 1 05.02.2027 -
Amine Adli Bournemouth Aktiv 140 / 135 40% 2 04.02.2027 -
Giorgi Chakvetadze Watford Aktiv 130 / 137 40% 1 04.02.2027 -
Rodrigo Gomes Wolverhampton Aktiv 144 / 148 40% 1 03.02.2027 -
Ali Ahmed Norwich City Aktiv 119 / 118 40% 1 02.02.2027 -
Riley McGree Middlesbrough Aktiv 127 / 138 40% 1 02.02.2027 -
Tyrese Campbell Sheffield United Aktiv 124 / 127 40% 1 01.02.2027 -
Tom Fellows Southampton Aktiv 134 / 122 40% 1 01.02.2027 -
Callum Hudson-Odoi Nottingham Forest Aktiv 146 / 157 40% 2 30.01.2027 -
Kenny Tete Fulham Aktiv 145 / 134 40% 2 29.01.2027 -
Marcelo Allende Mamelodi Sundowns Aktiv 125 / 119 40% 7 28.01.2027 -
Mandla Erasmus SuperSport United Aktiv 115 / 137 40% 1 28.01.2027 -
Teden Mengi Luton Town Aktiv 124 / 123 40% 1 28.01.2027 -
Callum Doyle Wrexham Aktiv 127 / 137 40% 1 28.01.2027 -
Callum O'Hare Sheffield United Aktiv 126 / 138 40% 1 26.01.2027 -
Gonzalo Fulham Aktiv 146 / 140 40% 1 25.01.2027 -
Xaver Schlager Nottingham Forest Aktiv 151 / 155 40% 1 25.01.2027 -
Liam Roberts Mansfield Town Aktiv 117 / 101 40% 1 25.01.2027 -
Everton Bala Levski Aktiv 122 / 124 40% 1 21.01.2027 -
Richard Ludha MFK Skalica Aktiv 119 / 101 40% 2 18.01.2027 -
Petar Stanić Ludogorets Aktiv 132 / 142 40% 2 16.01.2027 -
Marquinhos APOEL Aktiv 137 / 141 40% 1 16.01.2027 -
Álex Centelles Levski Aktiv 124 / 123 40% 2 14.01.2027 -
Evgeny Staver Rubin Aktiv 120 / 109 40% 1 14.01.2027 -
Williams Manyama SuperSport United Aktiv 117 / 116 40% 1 13.01.2027 -
Tomás Marchiori Vélez Aktiv 128 / 125 40% 2 12.01.2027 -
Yves Bissouma Tottenham Aktiv 149 / 150 40% 4 09.01.2027 -
Christian Krasnodar Aktiv 143 / 115 40% 2 08.01.2027 -
Teboho Mabunda SuperSport United Aktiv 111 / 107 40% 2 08.01.2027 -
Marquinhos Spartak Moscow Aktiv 141 / 134 40% 9 06.01.2027 -
Iván Arboleda Sarmiento Aktiv 119 / 131 40% 2 05.01.2027 -
Hany Mukhtar Spezia Aktiv 140 / 142 40% 3 05.01.2027 -
Samu Maccabi Netanya Aktiv 115 / 123 40% 1 03.01.2027 -
Pedrinho Shakhtar Aktiv 139 / 148 40% 2 31.12.2026 -
Nicolás Fernández Mercau Shakhtar Aktiv 135 / 132 40% 9 26.12.2026 -
Bathusi Aubaas Mamelodi Sundowns Aktiv 117 / 125 40% 1 26.12.2026 -
Martin Zlomislić Qarabag Aktiv 118 / 103 40% 4 24.12.2026 -
Marc-Aurèle Caillard Debrecen Aktiv 112 / 119 40% 2 24.12.2026 -
José Devecchi San Lorenzo Aktiv 123 / 128 40% 1 18.12.2026 -
Ruben van Bommel Ferencvaros Aktiv 130 / 132 40% 3 17.12.2026 -
Suleiman Camara Slovan Bratislava Aktiv 115 / 118 40% 1 14.12.2026 -
Jordan Lotomba Bloemfontein Celtic Aktiv 122 / 116 40% 6 13.12.2026 -
Hélio Varela Maccabi Tel Aviv Aktiv 120 / 117 40% 1 13.12.2026 -
Victor Parada Spartak Moscow Aktiv 128 / 132 40% 1 13.12.2026 -
Drake Callender Minnesota United FC Aktiv 130 / 110 40% 5 07.12.2026 -
Nicolás Sumavil Platense Aktiv 113 / 129 40% 2 07.12.2026 -
Femi Seriki Sheffield United Aktiv 122 / 117 40% 1 07.12.2026 -
Marko Malenica NK Osijek Aktiv 122 / 122 40% 1 06.12.2026 -
Conrad Wallem Austria Wien Aktiv 134 / 136 40% 4 04.12.2026 -
Jack Currie Oxford United Aktiv 117 / 128 40% 3 01.12.2026 -
Joaquín Gho Argentinos Juniors Aktiv 122 / 123 40% 2 30.11.2026 -
Angus Gunn San Jose Earthquakes Aktiv 119 / 110 40% 1 29.11.2026 -
Luis Ingolotti Atlético Tucumán Aktiv 128 / 131 40% 1 25.11.2026 -
Emilio Di Fulvio Colegiales Aktiv 115 / 114 40% 1 25.11.2026 -
Reda Khadra Qarabag Aktiv 137 / 139 40% 4 22.11.2026 -
Gabriel Jesus Barcelona Aktiv 155 / 158 40% 3 20.11.2026 -
Breel Embolo Atlanta United FC Aktiv 136 / 138 40% 3 20.11.2026 -
Valentín Barco Chelsea Aktiv 143 / 148 40% 1 18.11.2026 -
Alexandr Koryakin Krasnodar Aktiv 115 / 114 40% 1 13.11.2026 -
Elias Hadaya Sandefjord Aktiv 115 / 111 40% 1 13.11.2026 -
Brais Méndez Columbus Crew Aktiv 149 / 142 40% 6 12.11.2026 -
Sébastien Cibois Portimonense Aktiv 115 / 103 40% 1 10.11.2026 -
Dominik Takáč Slovan Bratislava Aktiv 128 / 115 40% 1 02.11.2026 -
Stanley Nwabali Astana Aktiv 102 / 107 40% 1 02.11.2026 -
Maxim De Cuyper Brighton Aktiv 139 / 129 40% 4 01.11.2026 -
Antony Portland Timbers Aktiv 125 / 126 40% 1 27.10.2026 -
Khuliso Mudau Mamelodi Sundowns Aktiv 123 / 121 40% 3 25.10.2026 -
Ryan Gauld Vancouver Whitecaps Aktiv 138 / 137 40% 3 25.10.2026 -
Aljaž Ivačič DAC Dunajska Streda Aktiv 117 / 113 40% 1 25.10.2026 -
Luka Gavran Toronto FC Aktiv 118 / 107 40% 2 24.10.2026 -
Lucas Bruera Carabobo Aktiv 118 / 125 40% 1 21.10.2026 -
Patrick Schulte Columbus Crew Aktiv 129 / 133 40% 1 21.10.2026 -
Roman Celentano FC Cincinnati Aktiv 123 / 115 40% 1 16.10.2026 -
João Gomes Aston Villa Aktiv 144 / 149 40% 2 15.10.2026 -
Jonathan Bamba Chicago Fire Aktiv 133 / 124 40% 1 10.10.2026 -
Sergi Palencia Los Angeles Football Club Aktiv 127 / 129 40% 1 07.10.2026 -
Facundo Mura Inter Miami CF Aktiv 129 / 117 40% 1 07.10.2026 -
Antonio Galeano Remo Stars Aktiv 118 / 114 40% 3 06.10.2026 -
Tadeo Allende Inter Miami CF Aktiv 123 / 110 40% 1 06.10.2026 -
Diego Luna Real Salt Lake Aktiv 132 / 124 40% 1 05.10.2026 -
Andile Manyama SuperSport United Aktiv 127 / 108 40% 1 05.10.2026 -
Allan Saint-Maximin Charlotte Football Club Aktiv 138 / 130 40% 1 03.10.2026 -
Djordje Mihailović Toronto FC Aktiv 133 / 137 40% 2 02.10.2026 -
David Da Costa Portland Timbers Aktiv 133 / 140 40% 1 02.10.2026 -
Dayne St. Clair Inter Miami CF Aktiv 125 / 118 40% 2 30.09.2026 -
John Pulskamp Sporting Kansas City Aktiv 119 / 122 40% 1 29.09.2026 -
Alejandro Araque Deportivo Tachira Aktiv 118 / 103 40% 1 28.09.2026 -
Metod Jurhar Voluntari Aktiv 116 / 123 40% 1 25.09.2026 -
Andreas Leitner SV Ried Aktiv 111 / 108 40% 1 25.09.2026 -
Riqui Puig LA Galaxy Aktiv 135 / 137 40% 1 21.09.2026 -
Cristopher Varela Deportivo La Guaira Aktiv 107 / 119 40% 1 21.09.2026 -
Mateusz Kochalski Dynamo Kyiv Aktiv 137 / 147 40% 1 21.09.2026 -
Joaquín Pereyra Minnesota United FC Aktiv 131 / 128 40% 1 19.09.2026 -
Tomás Chancalay Minnesota United FC Aktiv 130 / 121 40% 1 18.09.2026 -
Aubrey Modiba Mamelodi Sundowns Aktiv 114 / 107 40% 2 17.09.2026 -
Telasco Segovia Inter Miami CF Aktiv 125 / 143 40% 1 17.09.2026 -
Pavel Bucha FC Cincinnati Aktiv 131 / 126 40% 1 17.09.2026 -
Marcus Ingvartsen San Diego Football Club Aktiv 132 / 128 40% 1 16.09.2026 -
Griffin Yow New England Revolution Aktiv 118 / 116 40% 1 16.09.2026 -
Elias Achouri San Diego Football Club Aktiv 133 / 130 40% 1 13.09.2026 -
Rob Holding Colorado Rapids Aktiv 118 / 122 40% 1 10.09.2026 -
Stijn Spierings Real Salt Lake Aktiv 126 / 121 40% 1 07.09.2026 -
Josh Sargent Toronto FC Aktiv 124 / 128 40% 1 03.08.2026 -
Chuchu Ramírez Nacional Aktiv 123 / 121 40% 1 03.08.2026 -